Airfield :







YOU CAN JOIN US ON...

 
LOGIN :

Register | Disclaimer

   EN    FR    IT 

 









Legend :    VFR   Marginal VFR   IFR   Intensive IFR   Very Intensive IFR
Visi :
Ceiling :
>= 8 km
>= 3000ft
5 to 8 km
1000 to 3000 ft
1500m to 5 km
500 to 1000 ft
800 to 1500m
200 to 500 ft
< 800m
< 200 ft
Symbols :   Thunderstorms  Fog  Heavy snow  Heavy precipitations  Wind > 20 kt






- Airport Elevation : 74 ft
- IATA code : STX


TISX - Henri E Rohlsen

CURRENT METAR :
  • 150753Z AUTO 01003KT 10SM FEW025 24/22 A2995 RMK AO2 SLP140 T02440222

EXPIRED METARs :
  • 150653Z AUTO 35005KT 10SM CLR 24/22 A2995 RMK AO2 RAE01 SLP139 P0000 T02440222
  • 150553Z AUTO 12003KT 10SM -RA FEW020 BKN050 OVC070 26/23 A2996 RMK AO2 RAB41 SLP145 P0000 60000 T02560228 10272 20250 58011

TAF TISX
Valid from the 15 at 06:00 until the 16 at 06:00 UTC


150531Z 1506/1606 02006KT P6SM -SHRA VCSH SCT025 SCT050
FM151500 12012KT P6SM VCTS SCT030CB SCT050
FM152200 06010KT P6SM VCSH SCT030



MET'MAP, your aeronautical weather chart ! - Copyright ORBIFLY December 2007 - Disclaimer

ORBIFLY MET'MAP TEAM :

Programming & Development : Alexandra Zaïnal
Concept & Development : Baudouin d'Aumeries
Co-Development & Prog : Marc-Olivier Méhu
Technical & hardware support : Manuel Goepfert

Contact : metmap@orbifly.com




SOURCES & CREDITS :

   NOAA